createdAt,value
2023-04-02T00:13:30.033Z,17.7
2023-04-02T00:16:47.396Z,17.7
2023-04-02T00:20:06.241Z,17.7
2023-04-02T00:23:22.338Z,17.7
2023-04-02T00:28:18.271Z,17.7
2023-04-02T00:33:14.447Z,17.7
2023-04-02T00:38:09.028Z,17.7
2023-04-02T00:39:46.365Z,17.6
2023-04-02T00:43:11.850Z,17.7
2023-04-02T00:49:46.845Z,17.6
2023-04-02T00:51:25.366Z,17.6
2023-04-02T00:54:41.500Z,17.6
2023-04-02T00:56:18.209Z,17.6
2023-04-02T00:58:05.198Z,17.6
2023-04-02T01:01:22.420Z,17.6
2023-04-02T01:03:01.156Z,17.6
2023-04-02T01:07:57.308Z,17.9
2023-04-02T01:12:50.516Z,18.8
2023-04-02T01:17:46.532Z,19.4
2023-04-02T01:19:25.325Z,19.4
2023-04-02T01:21:04.112Z,19.4
2023-04-02T01:22:42.736Z,19.3
2023-04-02T01:29:16.134Z,19.1
2023-04-02T01:30:53.299Z,19
2023-04-02T01:39:06.744Z,19
2023-04-02T01:40:45.446Z,19
2023-04-02T01:42:24.228Z,19
2023-04-02T01:44:02.996Z,19
2023-04-02T01:47:18.870Z,19
2023-04-02T01:55:31.019Z,19
2023-04-02T02:03:44.539Z,19.1
2023-04-02T02:05:21.625Z,19.1
2023-04-02T02:10:15.967Z,19.1
2023-04-02T02:25:01.406Z,19.2
2023-04-02T02:28:18.649Z,19.2
2023-04-02T02:29:57.346Z,19.2
2023-04-02T02:33:14.904Z,19.2
2023-04-02T02:38:10.967Z,19.2
2023-04-02T02:41:26.923Z,19.2
2023-04-02T02:43:04.097Z,19.2
2023-04-02T02:44:42.824Z,19.2
2023-04-02T02:46:21.462Z,19.2
2023-04-02T02:48:00.315Z,19.2
2023-04-02T02:54:34.983Z,19.2
2023-04-02T02:57:52.451Z,19.2
2023-04-02T03:01:06.847Z,19.2
2023-04-02T03:02:45.560Z,19.2
2023-04-02T03:06:03.140Z,19.2
2023-04-02T03:10:59.218Z,19.3
2023-04-02T03:14:16.546Z,19.3
2023-04-02T03:17:32.436Z,19.3
2023-04-02T03:19:09.369Z,19.3
2023-04-02T03:22:26.859Z,19.3
2023-04-02T03:27:22.944Z,19.3
2023-04-02T03:38:50.844Z,19.3
2023-04-02T03:40:29.568Z,19.3
2023-04-02T03:43:47.050Z,19.3
2023-04-02T03:45:25.692Z,19.3
2023-04-02T03:48:43.131Z,19.4
2023-04-02T03:55:14.853Z,19.4
2023-04-02T04:00:11.055Z,19.4
2023-04-02T04:01:49.679Z,19.4
2023-04-02T04:05:07.080Z,19.4
2023-04-02T04:06:45.877Z,19.4
2023-04-02T04:10:03.304Z,19.4
2023-04-02T04:11:40.435Z,19.4
2023-04-02T04:16:35.100Z,19.4
2023-04-02T04:21:31.280Z,19.4
2023-04-02T04:23:09.913Z,19.4
2023-04-02T04:24:48.711Z,19.5
2023-04-02T04:29:43.240Z,19.5
2023-04-02T04:32:59.235Z,19.5
2023-04-02T04:37:55.305Z,19.5
2023-04-02T04:42:51.407Z,19.5
2023-04-02T04:44:30.110Z,19.5
2023-04-02T04:46:08.832Z,19.5
2023-04-02T04:49:23.327Z,19.5
2023-04-02T04:59:15.532Z,19.5
2023-04-02T05:00:54.220Z,19.5
2023-04-02T05:02:32.938Z,19.5
2023-04-02T05:04:11.641Z,19.5
2023-04-02T05:09:04.813Z,19.5
2023-04-02T05:10:43.535Z,19.5
2023-04-02T05:14:00.929Z,19.5
2023-04-02T05:15:39.632Z,19.5
2023-04-02T05:20:35.746Z,19.5
2023-04-02T05:22:14.456Z,19.5
2023-04-02T05:23:51.677Z,19.5
2023-04-02T05:27:07.636Z,19.5
2023-04-02T05:32:03.869Z,19.5
2023-04-02T05:36:59.892Z,19.5
2023-04-02T05:38:38.632Z,19.5
2023-04-02T05:41:54.486Z,19.5
2023-04-02T05:43:31.742Z,19.5
2023-04-02T05:48:27.948Z,19.6
2023-04-02T05:50:06.562Z,19.6
2023-04-02T05:53:23.963Z,19.6
2023-04-02T05:55:02.761Z,19.6
2023-04-02T05:58:20.074Z,19.6
2023-04-02T06:03:13.250Z,19.6
2023-04-02T06:04:52.051Z,19.6
2023-04-02T06:06:30.653Z,19.6
2023-04-02T06:09:48.069Z,19.6
2023-04-02T06:14:44.262Z,19.6
2023-04-02T06:21:16.068Z,19.6
2023-04-02T06:26:12.174Z,19.6
2023-04-02T06:29:37.772Z,19.6
2023-04-02T06:31:16.487Z,19.6
2023-04-02T06:34:32.497Z,19.6
2023-04-02T06:36:09.387Z,19.6
2023-04-02T06:37:56.223Z,19.6
2023-04-02T06:44:31.013Z,19.6
2023-04-02T06:46:09.760Z,19.6
2023-04-02T06:47:48.461Z,19.6
2023-04-02T06:49:27.125Z,19.6
2023-04-02T06:51:04.370Z,19.6
2023-04-02T06:52:41.618Z,19.6
2023-04-02T06:59:16.430Z,19.6
2023-04-02T07:05:51.398Z,19.6
2023-04-02T07:09:07.193Z,19.6
2023-04-02T07:10:44.420Z,19.6
2023-04-02T07:15:40.524Z,19.6
2023-04-02T07:17:19.244Z,19.6
2023-04-02T07:18:57.927Z,19.6
2023-04-02T07:20:36.635Z,19.6
2023-04-02T07:22:15.348Z,19.6
2023-04-02T07:25:32.749Z,19.6
2023-04-02T07:28:46.806Z,19.6
2023-04-02T07:37:00.382Z,19.7
2023-04-02T07:38:39.008Z,19.7
2023-04-02T07:43:35.124Z,19.7
2023-04-02T07:45:12.360Z,19.7
2023-04-02T07:46:49.625Z,19.7
2023-04-02T07:48:28.319Z,19.7
2023-04-02T07:55:03.350Z,19.8
2023-04-02T07:56:41.869Z,19.8
2023-04-02T07:58:20.572Z,19.7
2023-04-02T08:01:38.122Z,19.8
2023-04-02T08:09:48.611Z,19.8
2023-04-02T08:22:55.242Z,19.8
2023-04-02T08:26:12.672Z,19.8
2023-04-02T08:27:51.346Z,19.8
2023-04-02T08:31:08.754Z,19.8
2023-04-02T08:32:47.455Z,19.8
2023-04-02T08:34:26.143Z,19.8
2023-04-02T08:36:04.854Z,19.8
2023-04-02T08:42:36.881Z,19.8
2023-04-02T08:47:32.865Z,19.8
2023-04-02T08:49:11.557Z,19.8
2023-04-02T08:52:28.963Z,19.8
2023-04-02T08:59:00.952Z,19.9
2023-04-02T09:00:39.612Z,19.9
2023-04-02T09:08:53.066Z,19.9
2023-04-02T09:10:31.779Z,19.9
2023-04-02T09:13:49.214Z,19.9
2023-04-02T09:15:26.111Z,19.9
2023-04-02T09:17:03.283Z,19.9
2023-04-02T09:21:59.339Z,20
2023-04-02T09:25:16.752Z,20
2023-04-02T09:26:55.481Z,20
2023-04-02T09:28:34.153Z,20
2023-04-02T09:30:12.865Z,20
2023-04-02T09:33:28.806Z,20
2023-04-02T09:35:06.039Z,20
2023-04-02T09:36:44.801Z,20
2023-04-02T09:38:23.453Z,20
2023-04-02T09:41:40.853Z,20
2023-04-02T09:43:19.571Z,20
2023-04-02T09:46:37.121Z,20
2023-04-02T09:51:31.620Z,20
2023-04-02T09:53:08.852Z,20.1
2023-04-02T09:58:04.967Z,20.1
2023-04-02T09:59:43.680Z,20.1
2023-04-02T10:03:01.063Z,20.1
2023-04-02T10:07:57.194Z,20.1
2023-04-02T10:11:11.723Z,20.1
2023-04-02T10:19:25.190Z,20.1
2023-04-02T10:29:14.490Z,20.1
2023-04-02T10:30:53.196Z,20.1
2023-04-02T10:32:31.943Z,20.1
2023-04-02T10:34:10.590Z,20.1
2023-04-02T10:35:49.293Z,20.1
2023-04-02T10:37:28.022Z,20.1
2023-04-02T10:40:45.416Z,20.1
2023-04-02T10:45:40.048Z,20.1
2023-04-02T10:47:17.326Z,20.1
2023-04-02T10:48:56.002Z,20.1
2023-04-02T10:52:13.405Z,20.1
2023-04-02T10:53:52.105Z,20.1
2023-04-02T10:57:09.492Z,20.1
2023-04-02T11:02:05.618Z,20.1
2023-04-02T11:03:42.426Z,20.1
2023-04-02T11:11:54.590Z,20.1
2023-04-02T11:13:33.181Z,20.1
2023-04-02T11:18:29.285Z,20.1
2023-04-02T11:20:07.985Z,20.1
2023-04-02T11:21:45.231Z,20.1
2023-04-02T11:26:39.937Z,20.1
2023-04-02T11:36:32.105Z,20.2
2023-04-02T11:39:48.039Z,20.2
2023-04-02T11:41:25.285Z,20.2
2023-04-02T11:43:04.015Z,20.2
2023-04-02T11:46:21.401Z,20.3
2023-04-02T11:51:17.503Z,20.3
2023-04-02T11:59:28.106Z,20.3
2023-04-02T12:02:45.509Z,20.3
2023-04-02T12:04:24.212Z,20.3
2023-04-02T12:06:02.992Z,20.3
2023-04-02T12:11:07.265Z,20.3
2023-04-02T12:14:23.160Z,20.3
2023-04-02T12:16:00.510Z,20.3
2023-04-02T12:25:52.618Z,20.3
2023-04-02T12:27:31.324Z,20.3
2023-04-02T12:30:48.731Z,20.2
2023-04-02T12:32:25.966Z,20.2
2023-04-02T12:34:03.279Z,20.2
2023-04-02T12:35:41.941Z,20.2
2023-04-02T12:37:20.607Z,20.3
2023-04-02T12:38:59.318Z,20.3
2023-04-02T12:40:38.023Z,20.3
2023-04-02T12:42:16.723Z,20.2
2023-04-02T12:45:34.320Z,20.2
2023-04-02T12:47:12.832Z,20.1
2023-04-02T12:50:28.908Z,20.1
2023-04-02T12:52:06.019Z,20.1
2023-04-02T12:57:02.135Z,20.1
2023-04-02T12:58:40.827Z,20.1
2023-04-02T13:01:58.240Z,20.1
2023-04-02T13:03:36.941Z,20.1
2023-04-02T13:05:15.645Z,20.1
2023-04-02T13:06:54.350Z,20.1
2023-04-02T13:08:31.595Z,20.1
2023-04-02T13:10:08.837Z,20.1
2023-04-02T13:13:26.248Z,20.1
2023-04-02T13:15:04.952Z,20.1
2023-04-02T13:18:22.363Z,20.1
2023-04-02T13:20:01.071Z,20.1
2023-04-02T13:21:39.902Z,20.2
2023-04-02T13:23:18.457Z,20.1
2023-04-02T13:24:57.155Z,20.1
2023-04-02T13:26:34.431Z,20.1
2023-04-02T13:28:11.649Z,20.1
2023-04-02T13:29:50.354Z,20.1
2023-04-02T13:31:29.058Z,20.1
2023-04-02T13:34:46.458Z,20.1
2023-04-02T13:36:25.162Z,20.1
2023-04-02T13:38:03.873Z,20.2
2023-04-02T13:39:42.585Z,20.2
2023-04-02T13:42:59.990Z,20.2
2023-04-02T13:46:14.460Z,20.2
2023-04-02T13:49:31.877Z,20.1
2023-04-02T13:51:10.570Z,20.2
2023-04-02T13:52:49.286Z,20.2
2023-04-02T13:54:27.973Z,20.2
2023-04-02T13:56:06.679Z,20.2
2023-04-02T13:57:45.379Z,20.1
2023-04-02T14:01:02.793Z,20.1
2023-04-02T14:02:40.140Z,20.1
2023-04-02T14:07:34.698Z,20.1
2023-04-02T14:12:30.788Z,20.1
2023-04-02T14:14:09.486Z,20.1
2023-04-02T14:17:26.970Z,20.1
2023-04-02T14:19:05.594Z,20.1
2023-04-02T14:20:42.848Z,20.1
2023-04-02T14:23:58.883Z,20.1
2023-04-02T14:28:54.895Z,20.1
2023-04-02T14:30:33.598Z,20.1
2023-04-02T14:35:29.781Z,20.1
2023-04-02T14:38:45.652Z,20.1
2023-04-02T14:43:39.948Z,20.1
2023-04-02T14:45:18.648Z,20.1
2023-04-02T14:50:14.679Z,20.1
2023-04-02T14:51:53.382Z,20.1
2023-04-02T14:53:32.082Z,20.1
2023-04-02T14:55:10.845Z,20.1
2023-04-02T14:56:48.173Z,20.1
2023-04-02T14:58:25.275Z,20.1
2023-04-02T15:01:42.724Z,20
2023-04-02T15:03:21.376Z,20
2023-04-02T15:06:38.801Z,20
2023-04-02T15:08:17.488Z,20
2023-04-02T15:11:34.895Z,19.9
2023-04-02T15:13:13.595Z,19.9
2023-04-02T15:14:50.863Z,19.9
2023-04-02T15:16:28.076Z,19.9
2023-04-02T15:18:06.785Z,19.9
2023-04-02T15:21:24.211Z,19.8
2023-04-02T15:23:02.989Z,19.9
2023-04-02T15:26:20.305Z,19.9
2023-04-02T15:27:59.009Z,19.8
2023-04-02T15:29:37.715Z,19.8
2023-04-02T15:31:16.450Z,19.8
2023-04-02T15:32:53.644Z,19.8
2023-04-02T15:34:30.891Z,19.8
2023-04-02T15:36:09.681Z,19.9
2023-04-02T15:37:48.308Z,19.8
2023-04-02T15:39:27.015Z,19.8
2023-04-02T15:41:05.710Z,19.8
2023-04-02T15:42:44.416Z,19.8
2023-04-02T15:44:23.169Z,19.8
2023-04-02T15:49:19.219Z,19.9
2023-04-02T15:52:33.307Z,19.8
2023-04-02T15:54:11.989Z,19.9
2023-04-02T15:57:29.446Z,19.9
2023-04-02T16:00:46.781Z,19.8
2023-04-02T16:02:25.496Z,19.8
2023-04-02T16:04:04.196Z,19.8
2023-04-02T16:05:42.890Z,19.8
2023-04-02T16:07:21.601Z,19.8
2023-04-02T16:08:58.853Z,19.8
2023-04-02T16:10:36.211Z,19.8
2023-04-02T16:12:14.781Z,19.8
2023-04-02T16:13:53.489Z,19.8
2023-04-02T16:15:32.233Z,19.8
2023-04-02T16:17:10.895Z,19.8
2023-04-02T16:18:49.606Z,19.8
2023-04-02T16:22:07.007Z,19.8
2023-04-02T16:23:45.710Z,19.8
2023-04-02T16:28:38.890Z,19.8
2023-04-02T16:30:17.622Z,19.8
2023-04-02T16:31:56.305Z,19.8
2023-04-02T16:33:34.994Z,19.8
2023-04-02T16:36:52.401Z,19.7
2023-04-02T16:38:31.116Z,19.8
2023-04-02T16:43:27.211Z,19.8
2023-04-02T16:45:04.470Z,19.8
2023-04-02T16:46:41.764Z,19.8
2023-04-02T16:48:20.407Z,19.8
2023-04-02T16:49:59.114Z,19.7
2023-04-02T16:51:37.885Z,19.8
2023-04-02T16:54:55.222Z,19.8
2023-04-02T16:56:33.923Z,19.8
2023-04-02T16:58:12.630Z,19.7
2023-04-02T16:59:51.343Z,19.8
2023-04-02T17:01:30.034Z,19.8
2023-04-02T17:03:07.276Z,19.8
2023-04-02T17:04:44.525Z,19.8
2023-04-02T17:06:23.209Z,19.8
2023-04-02T17:08:01.971Z,19.8
2023-04-02T17:11:19.340Z,19.8
2023-04-02T17:12:58.029Z,19.8
2023-04-02T17:14:36.734Z,19.8
2023-04-02T17:17:54.135Z,19.8
2023-04-02T17:19:32.892Z,19.8
2023-04-02T17:21:10.090Z,19.7
2023-04-02T17:22:47.417Z,19.7
2023-04-02T17:24:26.027Z,19.8
2023-04-02T17:26:04.764Z,19.8
2023-04-02T17:27:43.437Z,19.7
2023-04-02T17:29:22.144Z,19.8
2023-04-02T17:31:00.850Z,19.7
2023-04-02T17:32:39.538Z,19.7
2023-04-02T17:34:18.266Z,19.7
2023-04-02T17:35:57.059Z,19.7
2023-04-02T17:37:37.144Z,19.7
2023-04-02T17:39:14.380Z,19.7
2023-04-02T17:40:53.249Z,19.7
2023-04-02T17:42:31.795Z,19.7
2023-04-02T17:44:10.531Z,19.6
2023-04-02T17:45:49.280Z,19.6
2023-04-02T17:47:36.072Z,19.6
2023-04-02T17:49:14.771Z,19.6
2023-04-02T17:50:53.490Z,19.6
2023-04-02T17:54:09.428Z,19.6
2023-04-02T17:55:46.669Z,19.6
2023-04-02T17:57:25.370Z,19.6
2023-04-02T18:00:42.847Z,19.6
2023-04-02T18:02:21.505Z,19.6
2023-04-02T18:05:38.890Z,19.6
2023-04-02T18:07:17.607Z,19.7
2023-04-02T18:10:36.579Z,19.7
2023-04-02T18:12:13.564Z,19.7
2023-04-02T18:14:00.252Z,19.7
2023-04-02T18:15:39.000Z,19.6
2023-04-02T18:17:17.683Z,19.7
2023-04-02T18:18:56.368Z,19.7
2023-04-02T18:20:35.071Z,19.7
2023-04-02T18:22:13.902Z,19.7
2023-04-02T18:23:52.479Z,19.7
2023-04-02T18:25:31.291Z,19.7
2023-04-02T18:27:08.423Z,19.7
2023-04-02T18:28:45.672Z,19.7
2023-04-02T18:30:24.442Z,19.7
2023-04-02T18:32:11.262Z,19.7
2023-04-02T18:33:49.979Z,19.7
2023-04-02T18:35:28.663Z,19.7
2023-04-02T18:37:07.368Z,19.7
2023-04-02T18:38:46.078Z,19.7
2023-04-02T18:40:24.778Z,19.7
2023-04-02T18:43:40.732Z,19.7
2023-04-02T18:45:18.015Z,19.7
2023-04-02T18:46:56.660Z,19.7
2023-04-02T18:48:35.362Z,19.7
2023-04-02T18:50:14.078Z,19.7
2023-04-02T18:51:52.820Z,19.7
2023-04-02T18:53:31.471Z,19.7
2023-04-02T18:55:10.216Z,19.7
2023-04-02T18:56:49.102Z,19.7
2023-04-02T18:58:27.782Z,19.7
2023-04-02T19:00:06.421Z,19.7
2023-04-02T19:01:43.614Z,19.7
2023-04-02T19:03:20.888Z,19.6
2023-04-02T19:04:59.492Z,19.7
2023-04-02T19:06:38.434Z,19.6
2023-04-02T19:08:25.234Z,19.6
2023-04-02T19:10:03.905Z,19.6
2023-04-02T19:11:42.673Z,19.5
2023-04-02T19:13:21.337Z,19.5
2023-04-02T19:16:38.756Z,19.4
2023-04-02T19:18:16.043Z,19.4
2023-04-02T19:19:53.277Z,19.3
2023-04-02T19:21:31.988Z,19.3
2023-04-02T19:23:10.662Z,19.3
2023-04-02T19:24:49.302Z,19.2
2023-04-02T19:26:27.900Z,19.2
2023-04-02T19:28:06.761Z,19.2
2023-04-02T19:29:45.446Z,19.1
2023-04-02T19:31:23.987Z,19.1
2023-04-02T19:33:02.940Z,19.1
2023-04-02T19:34:41.584Z,19
2023-04-02T19:36:18.836Z,19
2023-04-02T19:37:56.069Z,19
2023-04-02T19:39:34.744Z,18.9
2023-04-02T19:41:13.420Z,18.9
2023-04-02T19:42:52.213Z,18.9
2023-04-02T19:44:30.848Z,18.9
2023-04-02T19:46:09.530Z,18.8
2023-04-02T19:47:48.247Z,18.8
2023-04-02T19:49:27.001Z,18.8
2023-04-02T19:51:05.663Z,18.7
2023-04-02T19:52:44.323Z,18.7
2023-04-02T19:54:21.618Z,18.7
2023-04-02T19:55:58.901Z,18.7
2023-04-02T19:57:37.613Z,18.7
2023-04-02T19:59:16.256Z,18.6
2023-04-02T20:00:54.991Z,18.6
2023-04-02T20:02:33.689Z,18.8
2023-04-02T20:04:12.448Z,18.9
2023-04-02T20:05:51.107Z,19.1
2023-04-02T20:07:29.791Z,19.2
2023-04-02T20:09:08.543Z,19.3
2023-04-02T20:10:47.019Z,19.4
2023-04-02T20:12:23.993Z,19.3
2023-04-02T20:14:01.244Z,19.2
2023-04-02T20:15:39.774Z,19.1
2023-04-02T20:17:18.652Z,19
2023-04-02T20:18:57.405Z,18.9
2023-04-02T20:20:35.881Z,18.9
2023-04-02T20:22:14.717Z,18.8
2023-04-02T20:23:53.476Z,18.8
2023-04-02T20:25:32.222Z,18.7
2023-04-02T20:27:10.927Z,18.7
2023-04-02T20:28:49.678Z,18.7
2023-04-02T20:30:26.642Z,18.6
2023-04-02T20:32:04.037Z,18.6
2023-04-02T20:33:42.811Z,18.5
2023-04-02T20:35:21.437Z,18.4
2023-04-02T20:37:00.222Z,18.3
2023-04-02T20:38:38.866Z,18.2
2023-04-02T20:40:17.516Z,18.1
2023-04-02T20:41:56.252Z,18.1
2023-04-02T20:43:34.980Z,18
2023-04-02T20:45:13.532Z,18
2023-04-02T20:46:52.375Z,18
2023-04-02T20:48:29.566Z,17.9
2023-04-02T20:50:06.708Z,17.8
2023-04-02T20:51:45.515Z,17.7
2023-04-02T20:53:24.315Z,17.6
2023-04-02T20:55:02.907Z,17.6
2023-04-02T20:56:41.674Z,17.5
2023-04-02T20:58:20.329Z,17.5
2023-04-02T20:59:59.037Z,17.5
2023-04-02T21:01:37.864Z,17.4
2023-04-02T21:03:16.343Z,17.4
2023-04-02T21:04:55.208Z,17.4
2023-04-02T21:06:32.437Z,17.4
2023-04-02T21:08:09.656Z,17.4
2023-04-02T21:09:48.375Z,17.3
2023-04-02T21:11:27.133Z,17.3
2023-04-02T21:13:05.739Z,17.3
2023-04-02T21:16:23.225Z,17.3
2023-04-02T21:18:01.826Z,17.2
2023-04-02T21:21:19.237Z,17.2
2023-04-02T21:22:58.023Z,17.2
2023-04-02T21:24:35.245Z,17.1
2023-04-02T21:26:12.322Z,17.2
2023-04-02T21:27:51.117Z,17.1
2023-04-02T21:29:29.899Z,17.1
2023-04-02T21:31:08.591Z,17.1
2023-04-02T21:32:47.306Z,17.1
2023-04-02T21:34:25.996Z,17
2023-04-02T21:36:04.703Z,17
2023-04-02T21:37:43.384Z,17
2023-04-02T21:39:22.153Z,17
2023-04-02T21:41:00.804Z,17
2023-04-02T21:42:38.063Z,17
2023-04-02T21:44:15.336Z,17
2023-04-02T21:45:53.982Z,17
2023-04-02T21:47:32.748Z,17
2023-04-02T21:49:11.400Z,17
2023-04-02T21:50:50.078Z,17
2023-04-02T21:52:28.869Z,17
2023-04-02T21:54:07.530Z,16.9
2023-04-02T21:55:46.253Z,16.9
2023-04-02T21:57:24.922Z,16.9
2023-04-02T21:59:03.631Z,16.9
2023-04-02T22:00:40.889Z,16.9
2023-04-02T22:02:17.694Z,16.9
2023-04-02T22:03:56.393Z,16.8
2023-04-02T22:05:35.057Z,16.8
2023-04-02T22:08:52.501Z,16.8
2023-04-02T22:10:31.020Z,16.8
2023-04-02T22:12:09.890Z,16.8
2023-04-02T22:13:48.564Z,16.8
2023-04-02T22:15:27.144Z,16.7
2023-04-02T22:17:06.002Z,16.7
2023-04-02T22:18:43.283Z,16.7
2023-04-02T22:20:20.465Z,16.7
2023-04-02T22:21:59.184Z,16.7
2023-04-02T22:23:37.901Z,16.7
2023-04-02T22:25:16.624Z,16.7
2023-04-02T22:26:55.361Z,16.6
2023-04-02T22:28:33.970Z,16.6
2023-04-02T22:30:12.599Z,16.6
2023-04-02T22:31:51.436Z,16.6
2023-04-02T22:33:29.941Z,16.6
2023-04-02T22:35:08.818Z,16.6
2023-04-02T22:36:46.050Z,16.6
2023-04-02T22:38:23.123Z,16.6
2023-04-02T22:40:01.940Z,16.6
2023-04-02T22:41:40.739Z,16.6
2023-04-02T22:43:19.419Z,16.6
2023-04-02T22:44:58.142Z,16.6
2023-04-02T22:46:36.727Z,16.6
2023-04-02T22:48:15.518Z,16.6
2023-04-02T22:49:54.189Z,16.6
2023-04-02T22:51:33.014Z,16.5
2023-04-02T22:53:11.642Z,16.5
2023-04-02T22:54:48.804Z,16.5
2023-04-02T22:56:26.171Z,16.5
2023-04-02T22:58:04.685Z,16.5
2023-04-02T22:59:43.359Z,16.5
2023-04-02T23:01:22.151Z,16.5
2023-04-02T23:03:00.775Z,16.5
2023-04-02T23:04:39.455Z,16.5
2023-04-02T23:06:18.476Z,16.5
2023-04-02T23:08:05.161Z,16.5
2023-04-02T23:09:43.932Z,16.5
2023-04-02T23:11:21.186Z,16.5
2023-04-02T23:12:58.469Z,16.5
2023-04-02T23:14:37.095Z,16.5
2023-04-02T23:16:15.856Z,16.6
2023-04-02T23:17:54.519Z,16.6
2023-04-02T23:19:33.190Z,16.6
2023-04-02T23:21:11.932Z,16.6
2023-04-02T23:22:50.683Z,16.6
2023-04-02T23:24:29.236Z,16.5
2023-04-02T23:26:08.073Z,16.5
2023-04-02T23:27:46.739Z,16.6
2023-04-02T23:29:23.816Z,16.5
2023-04-02T23:31:01.088Z,16.5
2023-04-02T23:32:39.763Z,16.5
2023-04-02T23:34:18.669Z,16.5
2023-04-02T23:35:57.318Z,16.5
2023-04-02T23:37:36.026Z,16.5
2023-04-02T23:39:14.718Z,16.5
2023-04-02T23:40:53.478Z,16.5
2023-04-02T23:42:31.973Z,16.5
2023-04-02T23:44:10.775Z,16.5
2023-04-02T23:45:49.591Z,16.5
2023-04-02T23:47:26.786Z,16.5
2023-04-02T23:49:03.563Z,16.5
2023-04-02T23:50:42.181Z,16.5
2023-04-02T23:52:21.022Z,16.5
2023-04-02T23:53:59.553Z,16.5
2023-04-02T23:55:38.416Z,16.5
2023-04-02T23:57:17.118Z,16.5
2023-04-02T23:58:55.798Z,16.5
